ADDS METAR Data INFO
IDs: Format: Raw Decoded Include TAF

Data at: 0154 UTC 17 Oct 2017

KVTA 170054Z AUTO 00000KT 10SM CLR 07/04 A3029 RMK AO2 SLP261 T00720044
KVTA 162354Z AUTO 00000KT 10SM FEW075 08/04 A3028 RMK AO2 SLP258 T00780044 10161 20078 53008
KVTA 162254Z AUTO 30004KT 10SM CLR 10/03 A3027 RMK AO2 SLP251 T01000028
KVTA 162154Z AUTO 32006KT 10SM CLR 13/02 A3026 RMK AO2 SLP248 T01330022
KVTA 162054Z AUTO 30010G16KT 10SM CLR 16/01 A3026 RMK AO2 SLP246 T01560011 56004
KVTA 161954Z AUTO 32009G16KT 10SM FEW050 OVC070 14/02 A3026 RMK AO2 SLP248 T01390022
KVTA 161854Z AUTO 32005KT 10SM BKN065 13/04 A3026 RMK AO2 SLP248 T01330039
KVTA 161754Z AUTO 32005KT 10SM BKN047 14/03 A3027 RMK AO2 SLP252 T01440028 10150 20072 58003
KVTA 161654Z AUTO 33009KT 10SM SCT043 14/03 A3029 RMK AO2 SLP255 T01390028
KVTA 161554Z AUTO 32009KT 10SM CLR 14/03 A3029 RMK AO2 SLP256 T01390033
KVTA 161454Z AUTO 33008KT 10SM FEW030 12/04 A3028 RMK AO2 SLP255 T01220039 51017
KVTA 161354Z AUTO 33008KT 10SM CLR 11/04 A3027 RMK AO2 SLP252 T01110044
KVTA 161254Z AUTO 33008KT 10SM CLR 09/04 A3026 RMK AO2 SLP246 T00890044
KVTA 161154Z AUTO 32008KT 10SM CLR 07/04 A3023 RMK AO2 SLP238 70026 T00720044 10111 20072 53015
KVTA 161054Z AUTO 32008KT 10SM CLR 08/05 A3020 RMK AO2 SLP228 T00830050
KVTA 160954Z AUTO 33005KT 10SM SCT047 09/04 A3019 RMK AO2 SLP223 T00890044
KVTA 160854Z AUTO 33007KT 10SM OVC039 11/04 A3018 RMK AO2 SLP220 T01060044 53012
KVTA 160754Z AUTO 33008KT 10SM OVC044 11/04 A3016 RMK AO2 SLP212 T01060044
KVTA 160654Z AUTO 32007KT 10SM OVC049 11/04 A3015 RMK AO2 SLP208 T01110044
KVTA 160554Z AUTO 31007KT 10SM OVC045 11/04 A3015 RMK AO2 SLP205 T01110044 10144 20111 53015
KVTA 160454Z AUTO 33013G17KT 10SM FEW028 OVC039 12/06 A3013 RMK AO2 SLP199 T01220056 402560122
KVTA 160354Z AUTO 32008KT 10SM FEW023 SCT029 OVC040 12/08 A3011 RMK AO2 SLP192 T01220078
KVTA 160254Z AUTO 30009KT 10SM FEW045 12/07 A3010 RMK AO2 SLP189 T01220072 53026
KVTA 160154Z AUTO 32013G21KT 10SM OVC043 13/07 A3007 RMK AO2 SLP179 T01330067
KVTA 160054Z AUTO 31011KT 10SM OVC037 14/07 A3005 RMK AO2 SLP172 T01390072
KVTA 152354Z AUTO 32010G20KT 10SM BKN033 14/08 A3002 RMK AO2 SLP163 60026 T01440083 10256 20144 53035
KVTA 152254Z AUTO 29010G15KT 260V320 10SM FEW026 BKN090 OVC100 16/10 A2998 RMK AO2 RAB17E29 SLP149 P0000 T01560100
KVTA 152154Z AUTO 30014G26KT 10SM BKN047 BKN080 OVC110 17/11 A2995 RMK AO2 PK WND 28031/2101 SLP138 T01670106
KVTA 152054Z AUTO 29020G30KT 10SM FEW030 BKN060 18/12 A2991 RMK AO2 PK WND 30031/2003 WSHFT 1953 RAE1956B21E34 SLP126 P0000 60026 T01780117 53022
KVTA 152013Z AUTO 30020G29KT 10SM SCT039 SCT080 BKN100 19/14 A2989 RMK AO2 PK WND 30031/2003 WSHFT 1953 RAE1956 PRESRR P0000 T01890139
KVTA 151954Z AUTO 31013G23KT 8SM -RA FEW025 BKN037 OVC047 21/19 A2986 RMK AO2 PK WND 23027/1909 RAB34 SLP106 P0026 T02110189
KVTA 151952Z AUTO 28009KT 3SM -RA BR FEW025 BKN037 OVC070 21/19 A2985 RMK AO2 PK WND 23027/1909 RAB34 P0026
KVTA 151949Z AUTO 27011G22KT 3/4SM -RA BR SCT023 BKN037 OVC060 21/19 A2985 RMK AO2 PK WND 23027/1909 RAB34 P0026
KVTA 151942Z AUTO 24017G22KT 1/2SM +RA FEW021 BKN028 OVC065 22/19 A2986 RMK AO2 PK WND 23027/1909 RAB34 P0024 T02170189
KVTA 151939Z AUTO 26014G22KT 1 1/2SM +RA SCT026 BKN037 OVC100 23/18 A2987 RMK AO2 PK WND 23027/1909 RAB34 PRESRR P0009 T02280183
KVTA 151854Z AUTO 22016G24KT 10SM FEW031 BKN041 BKN050 25/18 A2985 RMK AO2 SLP101 T02500178
KVTA 151814Z AUTO 23015G21KT 10SM SCT025 BKN035 OVC047 24/18 A2987 RMK AO2 T02440178
KVTA 151754Z AUTO 21012G24KT 10SM BKN025 OVC030 24/18 A2987 RMK AO2 PK WND 22027/1725 SLP110 T02440178 10244 20200 58017
KVTA 151654Z AUTO 22011G22KT 10SM OVC022 23/18 A2990 RMK AO2 SLP117 T02280178
KVTA 151554Z AUTO 21015G24KT 10SM OVC023 23/17 A2991 RMK AO2 SLP123 T02280172
KVTA 151454Z AUTO 23015G26KT 10SM OVC023 23/17 A2992 RMK AO2 PK WND 21026/1430 SLP127 T02280172 58003